createdAt,value
2019-03-27T00:09:43.789Z,18.40
2019-03-27T00:20:43.606Z,23.50
2019-03-27T00:31:43.472Z,15.50
2019-03-27T00:42:43.614Z,25.60
2019-03-27T00:53:43.278Z,17.30
2019-03-27T01:04:43.092Z,21.20
2019-03-27T01:15:42.971Z,17.30
2019-03-27T01:26:42.849Z,15.00
2019-03-27T01:37:42.724Z,26.90
2019-03-27T01:48:42.623Z,22.30
2019-03-27T01:59:42.477Z,24.50
2019-03-27T02:10:42.354Z,23.80
2019-03-27T02:21:42.230Z,12.00
2019-03-27T02:32:42.179Z,28.80
2019-03-27T02:43:42.009Z,30.60
2019-03-27T02:54:41.880Z,19.70
2019-03-27T03:05:41.723Z,25.60
2019-03-27T03:16:43.296Z,21.70
2019-03-27T03:27:41.477Z,28.10
2019-03-27T03:38:41.373Z,15.80
2019-03-27T03:49:41.225Z,14.20
2019-03-27T04:00:41.100Z,18.40
2019-03-27T04:11:40.974Z,22.90
2019-03-27T04:22:40.853Z,20.30
2019-03-27T04:33:40.809Z,20.20
2019-03-27T04:44:40.612Z,17.50
2019-03-27T04:55:40.498Z,19.80
2019-03-27T05:06:40.386Z,18.10
2019-03-27T05:17:45.592Z,22.40
2019-03-27T05:28:40.127Z,24.20
2019-03-27T05:39:40.107Z,21.90
2019-03-27T05:50:39.867Z,31.30
2019-03-27T06:01:39.783Z,30.00
2019-03-27T06:12:39.948Z,28.70
2019-03-27T06:23:39.505Z,26.00
2019-03-27T06:34:39.425Z,27.70
2019-03-27T06:45:39.238Z,28.50
2019-03-27T06:56:39.139Z,25.30
2019-03-27T07:07:39.556Z,31.50
2019-03-27T07:18:40.251Z,27.50
2019-03-27T07:29:38.750Z,37.90
2019-03-27T07:40:38.620Z,40.50
2019-03-27T07:51:38.495Z,30.80
2019-03-27T08:02:38.368Z,23.20
2019-03-27T08:13:38.242Z,20.20
2019-03-27T08:24:38.129Z,15.30
2019-03-27T08:35:38.003Z,18.60
2019-03-27T08:46:37.871Z,14.20
2019-03-27T08:57:37.749Z,11.60
2019-03-27T09:08:37.626Z,13.90
2019-03-27T09:19:37.496Z,18.40
2019-03-27T09:30:37.409Z,20.40
2019-03-27T09:41:37.254Z,11.70
2019-03-27T09:52:37.120Z,9.70
2019-03-27T10:03:36.996Z,14.60
2019-03-27T10:14:36.872Z,15.20
2019-03-27T10:25:36.759Z,12.60
2019-03-27T10:36:36.624Z,22.20
2019-03-27T10:47:36.499Z,9.30
2019-03-27T10:58:36.417Z,12.80
2019-03-27T11:09:36.250Z,12.00
2019-03-27T11:20:36.143Z,10.60
2019-03-27T11:31:35.999Z,13.20
2019-03-27T11:42:35.877Z,5.20
2019-03-27T11:53:35.769Z,7.40
2019-03-27T12:04:35.628Z,6.00
2019-03-27T12:15:35.501Z,9.90
2019-03-27T12:26:35.393Z,6.60
2019-03-27T12:37:35.255Z,6.60
2019-03-27T12:48:35.128Z,9.80
2019-03-27T12:59:35.001Z,11.60
2019-03-27T13:10:34.876Z,12.60
2019-03-27T13:21:34.767Z,4.20
2019-03-27T13:32:34.646Z,6.00
2019-03-27T13:43:34.572Z,10.30
2019-03-27T13:54:34.371Z,10.90
2019-03-27T14:05:34.257Z,9.40
2019-03-27T14:16:34.129Z,5.10
2019-03-27T14:27:34.038Z,3.70
2019-03-27T14:38:33.890Z,3.50
2019-03-27T14:49:33.765Z,8.50
2019-03-27T15:00:33.650Z,5.30
2019-03-27T15:11:33.505Z,5.00
2019-03-27T15:22:33.393Z,6.60
2019-03-27T15:33:33.342Z,10.20
2019-03-27T15:44:33.157Z,8.30
2019-03-27T15:55:33.206Z,7.40
2019-03-27T16:06:32.897Z,5.90
2019-03-27T16:17:32.788Z,4.70
2019-03-27T16:28:32.647Z,11.40
2019-03-27T16:39:32.522Z,3.20
2019-03-27T16:50:32.490Z,5.20
2019-03-27T17:01:32.272Z,7.30
2019-03-27T17:12:32.191Z,8.20
2019-03-27T17:23:32.024Z,6.10
2019-03-27T17:34:31.919Z,8.40
2019-03-27T17:45:31.774Z,9.20
2019-03-27T17:56:31.648Z,13.50
2019-03-27T18:07:31.523Z,12.20
2019-03-27T18:18:31.431Z,17.30
2019-03-27T18:29:31.271Z,11.80
2019-03-27T18:40:31.148Z,8.80
2019-03-27T18:51:31.018Z,9.90
2019-03-27T19:02:30.990Z,10.80
2019-03-27T19:13:30.797Z,19.70
2019-03-27T19:24:30.741Z,20.10
2019-03-27T19:35:30.545Z,9.70
2019-03-27T19:46:30.418Z,19.60
2019-03-27T19:57:30.291Z,16.00
2019-03-27T20:08:31.173Z,6.80
2019-03-27T20:19:30.036Z,10.90
2019-03-27T20:30:29.915Z,10.90
2019-03-27T20:41:29.783Z,12.30
2019-03-27T20:52:29.662Z,10.40
2019-03-27T21:03:29.552Z,14.60
2019-03-27T21:14:29.426Z,9.10
2019-03-27T21:25:29.287Z,12.90
2019-03-27T21:36:29.161Z,11.80
2019-03-27T21:47:29.037Z,8.80
2019-03-27T21:58:29.014Z,11.00
2019-03-27T22:09:28.858Z,13.60
2019-03-27T22:20:28.669Z,16.60
2019-03-27T22:31:28.539Z,18.30
2019-03-27T22:42:28.416Z,9.80
2019-03-27T22:53:28.294Z,18.10
2019-03-27T23:04:28.183Z,13.70
2019-03-27T23:15:28.044Z,15.10
2019-03-27T23:26:27.921Z,13.20
2019-03-27T23:37:27.796Z,18.00
2019-03-27T23:48:27.672Z,19.20
2019-03-27T23:59:27.560Z,16.10
